sensor_id;sensor_type;location;lat;lon;timestamp;pressure;altitude;pressure_sealevel;temperature;humidity
69060;BME280;56135;37.534;-122.308;2022-10-20T00:00:05;101353.59;;;27.07;32.20
69060;BME280;56135;37.534;-122.308;2022-10-20T00:02:31;101354.50;;;26.94;29.59
69060;BME280;56135;37.534;-122.308;2022-10-20T00:04:57;101353.84;;;26.91;32.61
69060;BME280;56135;37.534;-122.308;2022-10-20T00:07:23;101349.75;;;26.72;31.71
69060;BME280;56135;37.534;-122.308;2022-10-20T00:09:48;101352.25;;;26.75;30.85
69060;BME280;56135;37.534;-122.308;2022-10-20T00:12:14;101348.00;;;26.84;29.10
69060;BME280;56135;37.534;-122.308;2022-10-20T00:14:40;101348.41;;;26.91;28.99
69060;BME280;56135;37.534;-122.308;2022-10-20T00:17:06;101345.63;;;26.92;28.97
69060;BME280;56135;37.534;-122.308;2022-10-20T00:19:31;101351.72;;;26.83;31.42
69060;BME280;56135;37.534;-122.308;2022-10-20T00:21:58;101341.63;;;26.72;31.11
69060;BME280;56135;37.534;-122.308;2022-10-20T00:24:24;101336.94;;;26.61;31.55
69060;BME280;56135;37.534;-122.308;2022-10-20T00:26:49;101337.06;;;26.47;32.51
69060;BME280;56135;37.534;-122.308;2022-10-20T00:29:15;101342.94;;;26.41;33.18
69060;BME280;56135;37.534;-122.308;2022-10-20T00:31:42;101342.47;;;26.21;33.78
69060;BME280;56135;37.534;-122.308;2022-10-20T00:34:15;101344.97;;;26.11;32.69
69060;BME280;56135;37.534;-122.308;2022-10-20T00:36:41;101340.47;;;25.97;31.76
69060;BME280;56135;37.534;-122.308;2022-10-20T00:39:07;101346.28;;;25.91;31.67
69060;BME280;56135;37.534;-122.308;2022-10-20T00:41:33;101347.91;;;25.81;31.10
69060;BME280;56135;37.534;-122.308;2022-10-20T00:44:00;101346.44;;;25.75;31.95
69060;BME280;56135;37.534;-122.308;2022-10-20T00:46:31;101340.91;;;25.64;33.21
69060;BME280;56135;37.534;-122.308;2022-10-20T00:49:00;101340.66;;;25.54;32.27
69060;BME280;56135;37.534;-122.308;2022-10-20T00:51:28;101339.72;;;25.41;30.98
69060;BME280;56135;37.534;-122.308;2022-10-20T00:53:57;101336.97;;;25.28;29.74
69060;BME280;56135;37.534;-122.308;2022-10-20T00:56:24;101332.22;;;25.17;31.98
69060;BME280;56135;37.534;-122.308;2022-10-20T00:58:50;101333.72;;;25.08;30.89
69060;BME280;56135;37.534;-122.308;2022-10-20T01:01:16;101330.72;;;24.98;29.76
69060;BME280;56135;37.534;-122.308;2022-10-20T01:03:43;101337.59;;;24.90;30.61
69060;BME280;56135;37.534;-122.308;2022-10-20T01:06:11;101338.38;;;24.77;28.96
69060;BME280;56135;37.534;-122.308;2022-10-20T01:08:37;101339.16;;;24.65;29.83
69060;BME280;56135;37.534;-122.308;2022-10-20T01:18:55;101337.91;;;24.11;29.18
69060;BME280;56135;37.534;-122.308;2022-10-20T01:23:54;101337.78;;;23.82;28.82
69060;BME280;56135;37.534;-122.308;2022-10-20T01:34:30;101336.75;;;23.39;27.15
69060;BME280;56135;37.534;-122.308;2022-10-20T01:39:28;101339.78;;;23.17;26.25
69060;BME280;56135;37.534;-122.308;2022-10-20T01:41:59;101340.34;;;23.06;28.14
69060;BME280;56135;37.534;-122.308;2022-10-20T01:44:27;101347.06;;;22.98;27.15
69060;BME280;56135;37.534;-122.308;2022-10-20T01:46:54;101349.28;;;22.90;26.48
69060;BME280;56135;37.534;-122.308;2022-10-20T01:49:21;101345.44;;;22.78;27.74
69060;BME280;56135;37.534;-122.308;2022-10-20T01:51:47;101344.28;;;22.66;28.33
69060;BME280;56135;37.534;-122.308;2022-10-20T01:54:23;101346.63;;;22.57;29.05
69060;BME280;56135;37.534;-122.308;2022-10-20T02:04:25;101349.91;;;22.11;29.56
69060;BME280;56135;37.534;-122.308;2022-10-20T02:06:57;101347.03;;;21.96;30.30
69060;BME280;56135;37.534;-122.308;2022-10-20T02:09:40;101348.63;;;21.83;30.13
69060;BME280;56135;37.534;-122.308;2022-10-20T02:12:15;101356.34;;;21.72;30.74
69060;BME280;56135;37.534;-122.308;2022-10-20T02:14:42;101359.78;;;21.56;31.52
69060;BME280;56135;37.534;-122.308;2022-10-20T02:17:09;101356.88;;;21.42;33.07
69060;BME280;56135;37.534;-122.308;2022-10-20T02:19:38;101352.66;;;21.36;31.74
69060;BME280;56135;37.534;-122.308;2022-10-20T02:22:05;101366.63;;;21.25;33.66
69060;BME280;56135;37.534;-122.308;2022-10-20T02:24:33;101363.72;;;21.11;31.23
69060;BME280;56135;37.534;-122.308;2022-10-20T02:27:01;101364.00;;;21.05;32.25
69060;BME280;56135;37.534;-122.308;2022-10-20T02:29:28;101371.47;;;20.98;32.22
69060;BME280;56135;37.534;-122.308;2022-10-20T02:31:55;101369.44;;;20.84;33.34
69060;BME280;56135;37.534;-122.308;2022-10-20T02:34:24;101367.38;;;20.70;33.33
69060;BME280;56135;37.534;-122.308;2022-10-20T02:36:49;101372.41;;;20.57;34.22
69060;BME280;56135;37.534;-122.308;2022-10-20T02:39:15;101371.00;;;20.48;34.28
69060;BME280;56135;37.534;-122.308;2022-10-20T02:41:41;101374.16;;;20.38;34.66
69060;BME280;56135;37.534;-122.308;2022-10-20T02:44:07;101382.09;;;20.20;35.03
69060;BME280;56135;37.534;-122.308;2022-10-20T02:46:33;101379.13;;;20.06;36.14
69060;BME280;56135;37.534;-122.308;2022-10-20T02:48:58;101379.63;;;19.93;36.44
69060;BME280;56135;37.534;-122.308;2022-10-20T02:51:24;101376.38;;;19.85;36.95
69060;BME280;56135;37.534;-122.308;2022-10-20T02:53:50;101379.69;;;19.70;37.63
69060;BME280;56135;37.534;-122.308;2022-10-20T02:56:19;101380.38;;;19.53;37.59
69060;BME280;56135;37.534;-122.308;2022-10-20T02:58:47;101376.50;;;19.38;38.01
69060;BME280;56135;37.534;-122.308;2022-10-20T03:01:13;101380.22;;;19.33;37.92
69060;BME280;56135;37.534;-122.308;2022-10-20T03:06:45;101388.47;;;19.05;38.34
69060;BME280;56135;37.534;-122.308;2022-10-20T03:09:21;101388.09;;;18.91;39.44
69060;BME280;56135;37.534;-122.308;2022-10-20T03:11:56;101387.56;;;18.81;39.38
69060;BME280;56135;37.534;-122.308;2022-10-20T03:14:22;101390.63;;;18.70;39.33
69060;BME280;56135;37.534;-122.308;2022-10-20T03:17:02;101384.84;;;18.57;39.88
69060;BME280;56135;37.534;-122.308;2022-10-20T03:19:36;101401.44;;;18.42;40.68
69060;BME280;56135;37.534;-122.308;2022-10-20T03:22:07;101399.13;;;18.31;41.53
69060;BME280;56135;37.534;-122.308;2022-10-20T03:24:33;101402.19;;;18.20;42.44
69060;BME280;56135;37.534;-122.308;2022-10-20T03:27:02;101406.16;;;18.08;43.02
69060;BME280;56135;37.534;-122.308;2022-10-20T03:29:31;101396.75;;;17.96;44.08
69060;BME280;56135;37.534;-122.308;2022-10-20T03:31:57;101407.75;;;17.86;44.23
69060;BME280;56135;37.534;-122.308;2022-10-20T03:34:28;101409.22;;;17.67;44.81
69060;BME280;56135;37.534;-122.308;2022-10-20T03:36:54;101412.09;;;17.61;44.55
69060;BME280;56135;37.534;-122.308;2022-10-20T03:39:20;101414.13;;;17.53;44.73
69060;BME280;56135;37.534;-122.308;2022-10-20T03:41:45;101410.00;;;17.43;44.76
69060;BME280;56135;37.534;-122.308;2022-10-20T03:44:27;101416.53;;;17.32;45.74
69060;BME280;56135;37.534;-122.308;2022-10-20T03:46:53;101414.31;;;17.17;45.93
69060;BME280;56135;37.534;-122.308;2022-10-20T03:49:26;101421.69;;;17.09;45.82
69060;BME280;56135;37.534;-122.308;2022-10-20T03:51:58;101424.69;;;16.98;45.97
69060;BME280;56135;37.534;-122.308;2022-10-20T03:54:27;101422.34;;;16.84;46.82
69060;BME280;56135;37.534;-122.308;2022-10-20T03:56:52;101419.13;;;16.73;46.90
69060;BME280;56135;37.534;-122.308;2022-10-20T03:59:21;101417.63;;;16.62;47.45
69060;BME280;56135;37.534;-122.308;2022-10-20T04:01:47;101424.81;;;16.59;47.88
69060;BME280;56135;37.534;-122.308;2022-10-20T04:04:13;101422.31;;;16.54;47.01
69060;BME280;56135;37.534;-122.308;2022-10-20T04:06:39;101419.78;;;16.48;47.28
69060;BME280;56135;37.534;-122.308;2022-10-20T04:09:05;101415.59;;;16.38;46.85
69060;BME280;56135;37.534;-122.308;2022-10-20T04:11:31;101424.75;;;16.29;47.54
69060;BME280;56135;37.534;-122.308;2022-10-20T04:13:57;101416.03;;;16.21;47.77
69060;BME280;56135;37.534;-122.308;2022-10-20T04:16:23;101420.78;;;16.09;49.05
69060;BME280;56135;37.534;-122.308;2022-10-20T04:18:50;101414.91;;;15.95;51.41
69060;BME280;56135;37.534;-122.308;2022-10-20T04:21:16;101416.78;;;15.91;52.37
69060;BME280;56135;37.534;-122.308;2022-10-20T04:23:42;101417.00;;;15.82;52.39
69060;BME280;56135;37.534;-122.308;2022-10-20T04:26:08;101414.38;;;15.79;53.13
69060;BME280;56135;37.534;-122.308;2022-10-20T04:28:34;101410.19;;;15.68;54.57
69060;BME280;56135;37.534;-122.308;2022-10-20T04:31:00;101413.91;;;15.61;54.07
69060;BME280;56135;37.534;-122.308;2022-10-20T04:33:26;101424.69;;;15.55;55.18
69060;BME280;56135;37.534;-122.308;2022-10-20T04:38:23;101425.84;;;15.43;56.99
69060;BME280;56135;37.534;-122.308;2022-10-20T04:40:53;101429.47;;;15.39;57.42
69060;BME280;56135;37.534;-122.308;2022-10-20T04:43:19;101424.41;;;15.28;58.63
69060;BME280;56135;37.534;-122.308;2022-10-20T04:45:44;101435.19;;;15.21;59.43
69060;BME280;56135;37.534;-122.308;2022-10-20T04:48:10;101434.41;;;15.15;58.76
69060;BME280;56135;37.534;-122.308;2022-10-20T04:50:36;101440.75;;;15.10;58.51
69060;BME280;56135;37.534;-122.308;2022-10-20T04:53:02;101440.91;;;15.02;57.95
69060;BME280;56135;37.534;-122.308;2022-10-20T04:55:27;101442.81;;;14.95;57.69
69060;BME280;56135;37.534;-122.308;2022-10-20T04:57:53;101437.69;;;14.86;57.90
69060;BME280;56135;37.534;-122.308;2022-10-20T05:00:19;101454.69;;;14.77;58.29
69060;BME280;56135;37.534;-122.308;2022-10-20T05:02:44;101455.75;;;14.68;59.02
69060;BME280;56135;37.534;-122.308;2022-10-20T05:05:10;101451.41;;;14.63;60.12
69060;BME280;56135;37.534;-122.308;2022-10-20T05:07:36;101463.88;;;14.56;60.10
69060;BME280;56135;37.534;-122.308;2022-10-20T05:10:02;101462.28;;;14.47;60.50
69060;BME280;56135;37.534;-122.308;2022-10-20T05:12:28;101465.13;;;14.37;61.43
69060;BME280;56135;37.534;-122.308;2022-10-20T05:14:54;101467.97;;;14.27;64.57
69060;BME280;56135;37.534;-122.308;2022-10-20T05:17:19;101468.88;;;14.25;62.65
69060;BME280;56135;37.534;-122.308;2022-10-20T05:19:45;101477.84;;;14.19;62.35
69060;BME280;56135;37.534;-122.308;2022-10-20T05:22:11;101476.16;;;14.12;61.59
69060;BME280;56135;37.534;-122.308;2022-10-20T05:24:37;101471.81;;;14.08;60.63
69060;BME280;56135;37.534;-122.308;2022-10-20T05:27:02;101471.00;;;14.02;59.41
69060;BME280;56135;37.534;-122.308;2022-10-20T05:29:28;101472.81;;;13.99;59.47
69060;BME280;56135;37.534;-122.308;2022-10-20T05:31:54;101472.91;;;13.94;59.47
69060;BME280;56135;37.534;-122.308;2022-10-20T05:34:20;101473.84;;;13.90;59.93
69060;BME280;56135;37.534;-122.308;2022-10-20T05:36:45;101471.28;;;13.84;60.55
69060;BME280;56135;37.534;-122.308;2022-10-20T05:39:11;101462.53;;;13.77;60.97
69060;BME280;56135;37.534;-122.308;2022-10-20T05:41:37;101466.16;;;13.72;62.67
69060;BME280;56135;37.534;-122.308;2022-10-20T05:44:03;101458.34;;;13.61;64.02
69060;BME280;56135;37.534;-122.308;2022-10-20T05:46:31;101457.44;;;13.60;63.84
69060;BME280;56135;37.534;-122.308;2022-10-20T05:48:58;101456.59;;;13.57;64.63
69060;BME280;56135;37.534;-122.308;2022-10-20T05:51:25;101464.78;;;13.43;65.73
69060;BME280;56135;37.534;-122.308;2022-10-20T05:53:53;101464.81;;;13.40;67.80
69060;BME280;56135;37.534;-122.308;2022-10-20T05:56:19;101456.84;;;13.38;66.35
69060;BME280;56135;37.534;-122.308;2022-10-20T05:58:45;101457.75;;;13.39;65.30
69060;BME280;56135;37.534;-122.308;2022-10-20T06:03:54;101456.09;;;13.27;64.69
69060;BME280;56135;37.534;-122.308;2022-10-20T06:06:21;101457.06;;;13.18;65.38
69060;BME280;56135;37.534;-122.308;2022-10-20T06:08:47;101453.59;;;13.13;66.35
69060;BME280;56135;37.534;-122.308;2022-10-20T06:11:15;101452.81;;;13.08;67.83
69060;BME280;56135;37.534;-122.308;2022-10-20T06:13:41;101459.00;;;13.04;66.59
69060;BME280;56135;37.534;-122.308;2022-10-20T06:16:14;101453.75;;;13.00;65.51
69060;BME280;56135;37.534;-122.308;2022-10-20T06:18:40;101461.78;;;12.94;65.30
69060;BME280;56135;37.534;-122.308;2022-10-20T06:21:10;101452.13;;;12.89;66.62
69060;BME280;56135;37.534;-122.308;2022-10-20T06:23:36;101457.53;;;12.79;68.41
69060;BME280;56135;37.534;-122.308;2022-10-20T06:26:06;101456.66;;;12.76;67.55
69060;BME280;56135;37.534;-122.308;2022-10-20T06:28:33;101457.63;;;12.68;68.32
69060;BME280;56135;37.534;-122.308;2022-10-20T06:30:59;101447.09;;;12.64;67.20
69060;BME280;56135;37.534;-122.308;2022-10-20T06:33:29;101448.00;;;12.60;66.99
69060;BME280;56135;37.534;-122.308;2022-10-20T06:35:58;101448.06;;;12.55;67.20
69060;BME280;56135;37.534;-122.308;2022-10-20T06:38:27;101450.72;;;12.50;66.79
69060;BME280;56135;37.534;-122.308;2022-10-20T06:40:53;101444.59;;;12.47;66.60
69060;BME280;56135;37.534;-122.308;2022-10-20T06:43:19;101451.69;;;12.43;67.42
69060;BME280;56135;37.534;-122.308;2022-10-20T06:45:52;101445.56;;;12.37;67.84
69060;BME280;56135;37.534;-122.308;2022-10-20T06:48:18;101449.16;;;12.29;69.24
69060;BME280;56135;37.534;-122.308;2022-10-20T06:50:44;101447.47;;;12.22;69.69
69060;BME280;56135;37.534;-122.308;2022-10-20T06:53:10;101444.88;;;12.17;69.25
69060;BME280;56135;37.534;-122.308;2022-10-20T06:55:36;101452.81;;;12.14;68.65
69060;BME280;56135;37.534;-122.308;2022-10-20T06:58:02;101443.16;;;12.09;69.77
69060;BME280;56135;37.534;-122.308;2022-10-20T07:00:28;101438.78;;;12.05;68.60
69060;BME280;56135;37.534;-122.308;2022-10-20T07:02:53;101441.47;;;11.97;69.14
69060;BME280;56135;37.534;-122.308;2022-10-20T07:05:19;101437.97;;;11.96;69.18
69060;BME280;56135;37.534;-122.308;2022-10-20T07:07:46;101437.94;;;11.92;69.64
69060;BME280;56135;37.534;-122.308;2022-10-20T07:10:12;101430.06;;;11.87;68.90
69060;BME280;56135;37.534;-122.308;2022-10-20T07:12:37;101433.59;;;11.81;69.41
69060;BME280;56135;37.534;-122.308;2022-10-20T07:15:03;101434.53;;;11.76;71.64
69060;BME280;56135;37.534;-122.308;2022-10-20T07:17:30;101437.22;;;11.73;70.79
69060;BME280;56135;37.534;-122.308;2022-10-20T07:19:56;101431.94;;;11.66;71.16
69060;BME280;56135;37.534;-122.308;2022-10-20T07:22:22;101431.09;;;11.61;71.05
69060;BME280;56135;37.534;-122.308;2022-10-20T07:24:47;101432.03;;;11.56;70.79
69060;BME280;56135;37.534;-122.308;2022-10-20T07:27:13;101433.78;;;11.54;70.23
69060;BME280;56135;37.534;-122.308;2022-10-20T07:29:39;101432.94;;;11.50;69.67
69060;BME280;56135;37.534;-122.308;2022-10-20T07:32:05;101431.22;;;11.46;69.05
69060;BME280;56135;37.534;-122.308;2022-10-20T07:34:30;101426.81;;;11.40;70.04
69060;BME280;56135;37.534;-122.308;2022-10-20T07:36:56;101431.25;;;11.37;70.68
69060;BME280;56135;37.534;-122.308;2022-10-20T07:39:22;101431.25;;;11.33;70.40
69060;BME280;56135;37.534;-122.308;2022-10-20T07:41:48;101437.47;;;11.28;70.43
69060;BME280;56135;37.534;-122.308;2022-10-20T07:44:14;101439.25;;;11.23;71.98
69060;BME280;56135;37.534;-122.308;2022-10-20T07:46:40;101436.63;;;11.18;73.89
69060;BME280;56135;37.534;-122.308;2022-10-20T07:49:06;101444.56;;;11.12;76.55
69060;BME280;56135;37.534;-122.308;2022-10-20T07:51:32;101441.97;;;11.09;76.10
69060;BME280;56135;37.534;-122.308;2022-10-20T07:54:02;101442.81;;;11.05;76.18
69060;BME280;56135;37.534;-122.308;2022-10-20T07:56:29;101441.97;;;11.01;75.37
69060;BME280;56135;37.534;-122.308;2022-10-20T07:58:56;101449.91;;;10.98;74.36
69060;BME280;56135;37.534;-122.308;2022-10-20T08:01:22;101442.88;;;10.94;74.57
69060;BME280;56135;37.534;-122.308;2022-10-20T08:03:48;101440.25;;;10.89;74.90
69060;BME280;56135;37.534;-122.308;2022-10-20T08:06:14;101437.59;;;10.86;75.61
69060;BME280;56135;37.534;-122.308;2022-10-20T08:08:40;101430.56;;;10.80;77.41
69060;BME280;56135;37.534;-122.308;2022-10-20T08:11:06;101429.69;;;10.77;77.03
69060;BME280;56135;37.534;-122.308;2022-10-20T08:13:32;101432.34;;;10.74;77.95
69060;BME280;56135;37.534;-122.308;2022-10-20T08:15:58;101435.00;;;10.71;76.88
69060;BME280;56135;37.534;-122.308;2022-10-20T08:18:24;101434.13;;;10.67;78.12
69060;BME280;56135;37.534;-122.308;2022-10-20T08:20:50;101434.16;;;10.64;79.08
69060;BME280;56135;37.534;-122.308;2022-10-20T08:23:16;101428.84;;;10.61;80.05
69060;BME280;56135;37.534;-122.308;2022-10-20T08:25:42;101435.03;;;10.55;81.58
69060;BME280;56135;37.534;-122.308;2022-10-20T08:28:08;101432.41;;;10.50;82.54
69060;BME280;56135;37.534;-122.308;2022-10-20T08:30:34;101438.59;;;10.48;83.83
69060;BME280;56135;37.534;-122.308;2022-10-20T08:33:00;101436.81;;;10.47;83.65
69060;BME280;56135;37.534;-122.308;2022-10-20T08:35:26;101438.56;;;10.45;83.39
69060;BME280;56135;37.534;-122.308;2022-10-20T08:37:52;101437.69;;;10.40;84.95
69060;BME280;56135;37.534;-122.308;2022-10-20T08:40:19;101446.53;;;10.37;88.50
69060;BME280;56135;37.534;-122.308;2022-10-20T08:42:45;101442.06;;;10.33;88.62
69060;BME280;56135;37.534;-122.308;2022-10-20T08:45:25;101445.59;;;10.30;89.97
69060;BME280;56135;37.534;-122.308;2022-10-20T08:47:54;101442.09;;;10.27;88.79
69060;BME280;56135;37.534;-122.308;2022-10-20T08:50:21;101446.47;;;10.25;88.75
69060;BME280;56135;37.534;-122.308;2022-10-20T08:52:50;101444.72;;;10.22;88.31
69060;BME280;56135;37.534;-122.308;2022-10-20T08:55:28;101437.69;;;10.18;91.17
69060;BME280;56135;37.534;-122.308;2022-10-20T08:58:14;101439.44;;;10.14;90.80
69060;BME280;56135;37.534;-122.308;2022-10-20T09:00:40;101438.56;;;10.12;91.18
69060;BME280;56135;37.534;-122.308;2022-10-20T09:03:17;101431.53;;;10.10;89.75
69060;BME280;56135;37.534;-122.308;2022-10-20T09:05:45;101435.91;;;10.08;90.73
69060;BME280;56135;37.534;-122.308;2022-10-20T09:08:12;101428.88;;;10.05;91.35
69060;BME280;56135;37.534;-122.308;2022-10-20T09:10:45;101435.03;;;10.02;90.66
69060;BME280;56135;37.534;-122.308;2022-10-20T09:13:30;101424.47;;;9.98;90.76
69060;BME280;56135;37.534;-122.308;2022-10-20T09:16:00;101429.72;;;9.93;92.33
69060;BME280;56135;37.534;-122.308;2022-10-20T09:18:28;101428.00;;;9.84;93.05
69060;BME280;56135;37.534;-122.308;2022-10-20T09:23:24;101436.75;;;9.76;97.79
69060;BME280;56135;37.534;-122.308;2022-10-20T09:25:50;101435.91;;;9.74;97.33
69060;BME280;56135;37.534;-122.308;2022-10-20T09:28:20;101442.03;;;9.70;97.05
69060;BME280;56135;37.534;-122.308;2022-10-20T09:30:46;101436.75;;;9.66;97.73
69060;BME280;56135;37.534;-122.308;2022-10-20T09:33:19;101439.38;;;9.66;99.31
69060;BME280;56135;37.534;-122.308;2022-10-20T09:35:46;101437.63;;;9.62;99.47
69060;BME280;56135;37.534;-122.308;2022-10-20T09:38:16;101437.63;;;9.58;98.57
69060;BME280;56135;37.534;-122.308;2022-10-20T09:41:05;101422.66;;;9.54;98.77
69060;BME280;56135;37.534;-122.308;2022-10-20T09:43:34;101432.31;;;9.50;100.00
69060;BME280;56135;37.534;-122.308;2022-10-20T09:46:06;101430.53;;;9.43;100.00
69060;BME280;56135;37.534;-122.308;2022-10-20T09:48:35;101430.53;;;9.38;100.00
69060;BME280;56135;37.534;-122.308;2022-10-20T09:51:02;101418.22;;;9.37;100.00
69060;BME280;56135;37.534;-122.308;2022-10-20T09:53:38;101427.00;;;9.38;100.00
69060;BME280;56135;37.534;-122.308;2022-10-20T09:56:09;101419.06;;;9.34;100.00
69060;BME280;56135;37.534;-122.308;2022-10-20T09:58:36;101419.06;;;9.31;100.00
69060;BME280;56135;37.534;-122.308;2022-10-20T10:01:03;101425.22;;;9.29;100.00
69060;BME280;56135;37.534;-122.308;2022-10-20T10:04:10;101413.78;;;9.24;100.00
69060;BME280;56135;37.534;-122.308;2022-10-20T10:08:58;101420.78;;;9.17;100.00
69060;BME280;56135;37.534;-122.308;2022-10-20T10:11:34;101410.19;;;9.11;100.00
69060;BME280;56135;37.534;-122.308;2022-10-20T10:14:01;101412.84;;;9.11;100.00
69060;BME280;56135;37.534;-122.308;2022-10-20T10:16:27;101411.09;;;9.10;100.00
69060;BME280;56135;37.534;-122.308;2022-10-20T10:19:04;101414.59;;;9.07;100.00
69060;BME280;56135;37.534;-122.308;2022-10-20T10:21:41;101414.56;;;9.06;100.00
69060;BME280;56135;37.534;-122.308;2022-10-20T10:24:10;101411.94;;;9.02;100.00
69060;BME280;56135;37.534;-122.308;2022-10-20T10:26:53;101411.94;;;8.98;100.00
69060;BME280;56135;37.534;-122.308;2022-10-20T10:29:23;101409.25;;;8.92;100.00
69060;BME280;56135;37.534;-122.308;2022-10-20T10:31:52;101413.66;;;8.91;100.00
69060;BME280;56135;37.534;-122.308;2022-10-20T10:34:26;101413.63;;;8.85;100.00
69060;BME280;56135;37.534;-122.308;2022-10-20T10:36:56;101405.72;;;8.82;100.00
69060;BME280;56135;37.534;-122.308;2022-10-20T10:39:22;101418.84;;;8.79;100.00
69060;BME280;56135;37.534;-122.308;2022-10-20T10:44:42;101417.94;;;8.75;100.00
69060;BME280;56135;37.534;-122.308;2022-10-20T11:03:43;101418.72;;;8.56;100.00
69060;BME280;56135;37.534;-122.308;2022-10-20T11:06:16;101414.31;;;8.51;100.00
69060;BME280;56135;37.534;-122.308;2022-10-20T11:14:15;101408.06;;;8.43;100.00
69060;BME280;56135;37.534;-122.308;2022-10-20T11:21:52;101404.50;;;8.33;100.00
69060;BME280;56135;37.534;-122.308;2022-10-20T11:24:25;101412.38;;;8.32;100.00
69060;BME280;56135;37.534;-122.308;2022-10-20T11:27:07;101410.59;;;8.26;100.00
69060;BME280;56135;37.534;-122.308;2022-10-20T11:29:41;101411.44;;;8.24;100.00
69060;BME280;56135;37.534;-122.308;2022-10-20T11:34:55;101418.44;;;8.17;100.00
69060;BME280;56135;37.534;-122.308;2022-10-20T11:37:26;101421.91;;;8.14;100.00
69060;BME280;56135;37.534;-122.308;2022-10-20T11:44:56;101428.84;;;8.06;100.00
69060;BME280;56135;37.534;-122.308;2022-10-20T11:47:37;101427.97;;;8.06;100.00
69060;BME280;56135;37.534;-122.308;2022-10-20T11:50:04;101418.28;;;8.03;100.00
69060;BME280;56135;37.534;-122.308;2022-10-20T11:55:03;101422.63;;;7.99;100.00
69060;BME280;56135;37.534;-122.308;2022-10-20T11:57:37;101422.63;;;7.95;100.00
69060;BME280;56135;37.534;-122.308;2022-10-20T12:00:14;101418.22;;;7.94;100.00
69060;BME280;56135;37.534;-122.308;2022-10-20T12:05:50;101408.53;;;7.88;100.00
69060;BME280;56135;37.534;-122.308;2022-10-20T12:11:02;101413.72;;;7.83;100.00
69060;BME280;56135;37.534;-122.308;2022-10-20T12:16:02;101414.53;;;7.75;100.00
69060;BME280;56135;37.534;-122.308;2022-10-20T12:20:55;101411.00;;;7.73;100.00
69060;BME280;56135;37.534;-122.308;2022-10-20T12:27:02;101423.22;;;7.66;100.00
69060;BME280;56135;37.534;-122.308;2022-10-20T12:28:57;101414.41;;;7.62;100.00
69060;BME280;56135;37.534;-122.308;2022-10-20T12:31:23;101416.16;;;7.59;100.00
69060;BME280;56135;37.534;-122.308;2022-10-20T12:38:44;101419.56;;;7.53;100.00
69060;BME280;56135;37.534;-122.308;2022-10-20T12:41:11;101415.13;;;7.47;100.00
69060;BME280;56135;37.534;-122.308;2022-10-20T12:43:52;101414.25;;;7.47;100.00
69060;BME280;56135;37.534;-122.308;2022-10-20T12:46:25;101423.88;;;7.48;100.00
69060;BME280;56135;37.534;-122.308;2022-10-20T12:48:52;101422.13;;;7.45;100.00
69060;BME280;56135;37.534;-122.308;2022-10-20T12:53:52;101430.88;;;7.44;100.00
69060;BME280;56135;37.534;-122.308;2022-10-20T12:56:19;101419.44;;;7.41;100.00
69060;BME280;56135;37.534;-122.308;2022-10-20T13:01:29;101424.69;;;7.41;100.00
69060;BME280;56135;37.534;-122.308;2022-10-20T13:03:55;101432.59;;;7.41;100.00
69060;BME280;56135;37.534;-122.308;2022-10-20T13:11:51;101420.25;;;7.35;100.00
69060;BME280;56135;37.534;-122.308;2022-10-20T13:14:23;101426.38;;;7.32;100.00
69060;BME280;56135;37.534;-122.308;2022-10-20T13:16:59;101426.31;;;7.29;100.00
69060;BME280;56135;37.534;-122.308;2022-10-20T13:19:30;101426.28;;;7.26;100.00
69060;BME280;56135;37.534;-122.308;2022-10-20T13:22:18;101428.03;;;7.24;100.00
69060;BME280;56135;37.534;-122.308;2022-10-20T13:24:45;101425.34;;;7.23;100.00
69060;BME280;56135;37.534;-122.308;2022-10-20T13:27:13;101431.50;;;7.22;100.00
69060;BME280;56135;37.534;-122.308;2022-10-20T13:29:40;101428.84;;;7.20;100.00
69060;BME280;56135;37.534;-122.308;2022-10-20T13:32:14;101440.22;;;7.19;100.00
69060;BME280;56135;37.534;-122.308;2022-10-20T13:37:26;101415.63;;;7.12;100.00
69060;BME280;56135;37.534;-122.308;2022-10-20T13:50:10;101428.72;;;7.09;100.00
69060;BME280;56135;37.534;-122.308;2022-10-20T13:52:38;101429.53;;;7.07;100.00
69060;BME280;56135;37.534;-122.308;2022-10-20T13:55:05;101426.03;;;7.06;100.00
69060;BME280;56135;37.534;-122.308;2022-10-20T13:57:32;101427.75;;;7.04;100.00
69060;BME280;56135;37.534;-122.308;2022-10-20T14:00:00;101425.13;;;7.03;100.00
69060;BME280;56135;37.534;-122.308;2022-10-20T14:02:28;101424.25;;;7.04;100.00
69060;BME280;56135;37.534;-122.308;2022-10-20T14:05:28;101420.75;;;7.03;100.00
69060;BME280;56135;37.534;-122.308;2022-10-20T14:07:46;101426.03;;;7.03;100.00
69060;BME280;56135;37.534;-122.308;2022-10-20T14:10:30;101428.66;;;7.03;100.00
69060;BME280;56135;37.534;-122.308;2022-10-20T14:12:59;101426.88;;;7.02;100.00
69060;BME280;56135;37.534;-122.308;2022-10-20T14:15:29;101430.34;;;7.01;100.00
69060;BME280;56135;37.534;-122.308;2022-10-20T14:17:58;101430.38;;;7.03;100.00
69060;BME280;56135;37.534;-122.308;2022-10-20T14:20:24;101428.59;;;7.00;100.00
69060;BME280;56135;37.534;-122.308;2022-10-20T14:22:50;101424.22;;;7.00;100.00
69060;BME280;56135;37.534;-122.308;2022-10-20T14:25:18;101425.94;;;6.98;100.00
69060;BME280;56135;37.534;-122.308;2022-10-20T14:27:44;101422.47;;;6.99;100.00
69060;BME280;56135;37.534;-122.308;2022-10-20T14:30:15;101425.94;;;6.98;100.00